sensor_id;sensor_type;location;lat;lon;timestamp;P1;durP1;ratioP1;P2;durP2;ratioP2
16015;SDS011;8112;53.592;10.184;2023-07-09T00:00:44;3.53;;;2.40;;
16015;SDS011;8112;53.592;10.184;2023-07-09T00:05:48;4.17;;;2.40;;
16015;SDS011;8112;53.592;10.184;2023-07-09T00:10:52;4.67;;;2.60;;
16015;SDS011;8112;53.592;10.184;2023-07-09T00:15:55;4.47;;;2.70;;
16015;SDS011;8112;53.592;10.184;2023-07-09T00:20:59;5.20;;;3.10;;
16015;SDS011;8112;53.592;10.184;2023-07-09T00:26:04;3.97;;;2.20;;
16015;SDS011;8112;53.592;10.184;2023-07-09T00:31:10;3.10;;;2.27;;
16015;SDS011;8112;53.592;10.184;2023-07-09T00:36:15;5.80;;;3.00;;
16015;SDS011;8112;53.592;10.184;2023-07-09T00:41:22;5.27;;;2.63;;
16015;SDS011;8112;53.592;10.184;2023-07-09T00:52:11;4.83;;;2.60;;
16015;SDS011;8112;53.592;10.184;2023-07-09T00:57:26;4.57;;;2.53;;
16015;SDS011;8112;53.592;10.184;2023-07-09T01:02:29;2.60;;;2.40;;
16015;SDS011;8112;53.592;10.184;2023-07-09T01:07:31;4.97;;;2.57;;
16015;SDS011;8112;53.592;10.184;2023-07-09T01:12:36;5.23;;;2.97;;
16015;SDS011;8112;53.592;10.184;2023-07-09T01:17:37;3.77;;;2.80;;
16015;SDS011;8112;53.592;10.184;2023-07-09T01:22:40;5.33;;;2.87;;
16015;SDS011;8112;53.592;10.184;2023-07-09T01:27:43;3.97;;;2.40;;
16015;SDS011;8112;53.592;10.184;2023-07-09T01:32:46;3.27;;;2.60;;
16015;SDS011;8112;53.592;10.184;2023-07-09T01:37:49;3.43;;;2.40;;
16015;SDS011;8112;53.592;10.184;2023-07-09T01:42:51;4.20;;;2.50;;
16015;SDS011;8112;53.592;10.184;2023-07-09T01:47:53;3.53;;;2.77;;
16015;SDS011;8112;53.592;10.184;2023-07-09T01:52:57;4.67;;;3.17;;
16015;SDS011;8112;53.592;10.184;2023-07-09T01:57:59;4.50;;;2.90;;
16015;SDS011;8112;53.592;10.184;2023-07-09T02:03:05;7.13;;;2.50;;
16015;SDS011;8112;53.592;10.184;2023-07-09T02:08:09;4.80;;;2.97;;
16015;SDS011;8112;53.592;10.184;2023-07-09T02:13:10;3.50;;;2.80;;
16015;SDS011;8112;53.592;10.184;2023-07-09T02:18:13;3.53;;;2.90;;
16015;SDS011;8112;53.592;10.184;2023-07-09T02:23:16;3.40;;;3.10;;
16015;SDS011;8112;53.592;10.184;2023-07-09T02:28:18;3.17;;;2.60;;
16015;SDS011;8112;53.592;10.184;2023-07-09T02:33:19;3.67;;;2.60;;
16015;SDS011;8112;53.592;10.184;2023-07-09T02:38:25;4.03;;;2.70;;
16015;SDS011;8112;53.592;10.184;2023-07-09T02:43:27;3.47;;;2.80;;
16015;SDS011;8112;53.592;10.184;2023-07-09T02:48:29;3.10;;;2.80;;
16015;SDS011;8112;53.592;10.184;2023-07-09T02:53:32;4.40;;;3.00;;
16015;SDS011;8112;53.592;10.184;2023-07-09T02:58:34;4.13;;;2.77;;
16015;SDS011;8112;53.592;10.184;2023-07-09T03:03:36;3.80;;;2.40;;
16015;SDS011;8112;53.592;10.184;2023-07-09T03:08:39;6.53;;;3.03;;
16015;SDS011;8112;53.592;10.184;2023-07-09T03:13:41;4.30;;;3.43;;
16015;SDS011;8112;53.592;10.184;2023-07-09T03:18:42;4.30;;;2.90;;
16015;SDS011;8112;53.592;10.184;2023-07-09T03:23:46;5.57;;;3.07;;
16015;SDS011;8112;53.592;10.184;2023-07-09T03:28:47;3.67;;;2.87;;
16015;SDS011;8112;53.592;10.184;2023-07-09T03:33:49;5.97;;;2.70;;
16015;SDS011;8112;53.592;10.184;2023-07-09T03:38:53;5.00;;;2.63;;
16015;SDS011;8112;53.592;10.184;2023-07-09T03:43:55;3.47;;;2.80;;
16015;SDS011;8112;53.592;10.184;2023-07-09T03:48:57;4.03;;;3.00;;
16015;SDS011;8112;53.592;10.184;2023-07-09T03:54:01;4.50;;;2.80;;
16015;SDS011;8112;53.592;10.184;2023-07-09T03:59:03;3.97;;;2.90;;
16015;SDS011;8112;53.592;10.184;2023-07-09T04:04:04;2.80;;;2.50;;
16015;SDS011;8112;53.592;10.184;2023-07-09T04:09:07;3.37;;;2.80;;
16015;SDS011;8112;53.592;10.184;2023-07-09T04:14:09;4.43;;;2.90;;
16015;SDS011;8112;53.592;10.184;2023-07-09T04:19:11;4.37;;;2.87;;
16015;SDS011;8112;53.592;10.184;2023-07-09T04:24:14;3.17;;;2.80;;
16015;SDS011;8112;53.592;10.184;2023-07-09T04:29:18;4.30;;;2.67;;
16015;SDS011;8112;53.592;10.184;2023-07-09T04:34:19;4.03;;;3.37;;
16015;SDS011;8112;53.592;10.184;2023-07-09T04:39:22;4.83;;;3.60;;
16015;SDS011;8112;53.592;10.184;2023-07-09T04:44:24;3.23;;;2.93;;
16015;SDS011;8112;53.592;10.184;2023-07-09T04:49:26;3.07;;;2.87;;
16015;SDS011;8112;53.592;10.184;2023-07-09T04:54:29;3.30;;;2.97;;
16015;SDS011;8112;53.592;10.184;2023-07-09T04:59:31;3.73;;;2.73;;
16015;SDS011;8112;53.592;10.184;2023-07-09T05:04:32;3.33;;;3.03;;
16015;SDS011;8112;53.592;10.184;2023-07-09T05:09:39;3.07;;;2.70;;
16015;SDS011;8112;53.592;10.184;2023-07-09T05:14:40;6.13;;;2.73;;
16015;SDS011;8112;53.592;10.184;2023-07-09T05:19:42;4.70;;;3.40;;
16015;SDS011;8112;53.592;10.184;2023-07-09T05:24:45;3.80;;;3.17;;
16015;SDS011;8112;53.592;10.184;2023-07-09T05:29:47;4.20;;;2.97;;
16015;SDS011;8112;53.592;10.184;2023-07-09T05:34:48;3.27;;;2.73;;
16015;SDS011;8112;53.592;10.184;2023-07-09T05:39:51;4.87;;;2.70;;
16015;SDS011;8112;53.592;10.184;2023-07-09T05:44:53;3.50;;;3.00;;
16015;SDS011;8112;53.592;10.184;2023-07-09T05:49:55;3.23;;;2.53;;
16015;SDS011;8112;53.592;10.184;2023-07-09T05:54:58;3.93;;;2.80;;
16015;SDS011;8112;53.592;10.184;2023-07-09T06:00:00;5.70;;;3.10;;
16015;SDS011;8112;53.592;10.184;2023-07-09T06:05:13;5.40;;;3.03;;
16015;SDS011;8112;53.592;10.184;2023-07-09T06:10:16;3.77;;;2.60;;
16015;SDS011;8112;53.592;10.184;2023-07-09T06:15:18;4.50;;;3.27;;
16015;SDS011;8112;53.592;10.184;2023-07-09T06:20:20;3.57;;;2.97;;
16015;SDS011;8112;53.592;10.184;2023-07-09T06:25:23;4.50;;;2.87;;
16015;SDS011;8112;53.592;10.184;2023-07-09T06:30:24;3.73;;;3.07;;
16015;SDS011;8112;53.592;10.184;2023-07-09T06:35:26;4.63;;;2.87;;
16015;SDS011;8112;53.592;10.184;2023-07-09T06:40:29;4.10;;;3.20;;
16015;SDS011;8112;53.592;10.184;2023-07-09T06:45:31;4.57;;;3.00;;
16015;SDS011;8112;53.592;10.184;2023-07-09T06:50:33;4.67;;;2.70;;
16015;SDS011;8112;53.592;10.184;2023-07-09T06:55:36;5.67;;;3.10;;
16015;SDS011;8112;53.592;10.184;2023-07-09T07:00:38;4.35;;;2.63;;
16015;SDS011;8112;53.592;10.184;2023-07-09T07:05:42;3.47;;;3.17;;
16015;SDS011;8112;53.592;10.184;2023-07-09T07:10:47;3.08;;;2.88;;
16015;SDS011;8112;53.592;10.184;2023-07-09T07:15:49;3.03;;;2.43;;
16015;SDS011;8112;53.592;10.184;2023-07-09T07:20:51;6.70;;;3.33;;
16015;SDS011;8112;53.592;10.184;2023-07-09T07:25:54;3.33;;;3.00;;
16015;SDS011;8112;53.592;10.184;2023-07-09T07:30:59;4.00;;;3.10;;
16015;SDS011;8112;53.592;10.184;2023-07-09T07:36:03;4.30;;;2.80;;
16015;SDS011;8112;53.592;10.184;2023-07-09T07:41:07;3.28;;;2.97;;
16015;SDS011;8112;53.592;10.184;2023-07-09T07:46:09;5.50;;;3.10;;
16015;SDS011;8112;53.592;10.184;2023-07-09T07:51:10;4.63;;;3.00;;
16015;SDS011;8112;53.592;10.184;2023-07-09T07:56:14;5.22;;;3.20;;
16015;SDS011;8112;53.592;10.184;2023-07-09T08:01:16;3.42;;;3.10;;
16015;SDS011;8112;53.592;10.184;2023-07-09T08:06:17;3.10;;;2.72;;
16015;SDS011;8112;53.592;10.184;2023-07-09T08:11:20;3.85;;;3.28;;
16015;SDS011;8112;53.592;10.184;2023-07-09T08:16:22;6.57;;;3.10;;
16015;SDS011;8112;53.592;10.184;2023-07-09T08:21:24;3.78;;;3.00;;
16015;SDS011;8112;53.592;10.184;2023-07-09T08:26:27;4.40;;;3.00;;
16015;SDS011;8112;53.592;10.184;2023-07-09T08:31:28;3.97;;;3.60;;
16015;SDS011;8112;53.592;10.184;2023-07-09T08:36:30;3.80;;;2.92;;
16015;SDS011;8112;53.592;10.184;2023-07-09T08:41:39;3.75;;;3.35;;
16015;SDS011;8112;53.592;10.184;2023-07-09T08:46:47;4.88;;;3.28;;
16015;SDS011;8112;53.592;10.184;2023-07-09T08:51:57;3.42;;;3.10;;
16015;SDS011;8112;53.592;10.184;2023-07-09T08:57:02;3.97;;;2.83;;
16015;SDS011;8112;53.592;10.184;2023-07-09T09:02:26;4.20;;;3.53;;
16015;SDS011;8112;53.592;10.184;2023-07-09T09:07:38;3.55;;;3.22;;
16015;SDS011;8112;53.592;10.184;2023-07-09T09:12:48;5.05;;;3.40;;
16015;SDS011;8112;53.592;10.184;2023-07-09T09:18:09;5.13;;;3.35;;
16015;SDS011;8112;53.592;10.184;2023-07-09T09:23:19;4.63;;;3.72;;
16015;SDS011;8112;53.592;10.184;2023-07-09T09:28:23;3.33;;;3.03;;
16015;SDS011;8112;53.592;10.184;2023-07-09T09:33:36;3.85;;;3.15;;
16015;SDS011;8112;53.592;10.184;2023-07-09T09:38:38;3.92;;;3.50;;
16015;SDS011;8112;53.592;10.184;2023-07-09T09:43:43;3.42;;;3.13;;
16015;SDS011;8112;53.592;10.184;2023-07-09T09:48:47;6.57;;;3.40;;
16015;SDS011;8112;53.592;10.184;2023-07-09T09:53:50;3.63;;;3.30;;
16015;SDS011;8112;53.592;10.184;2023-07-09T09:58:58;5.40;;;3.38;;
16015;SDS011;8112;53.592;10.184;2023-07-09T10:04:02;7.93;;;3.00;;
16015;SDS011;8112;53.592;10.184;2023-07-09T10:09:08;3.90;;;3.50;;
16015;SDS011;8112;53.592;10.184;2023-07-09T10:14:25;4.65;;;3.53;;
16015;SDS011;8112;53.592;10.184;2023-07-09T10:19:35;4.82;;;3.30;;
16015;SDS011;8112;53.592;10.184;2023-07-09T10:24:47;4.55;;;3.60;;
16015;SDS011;8112;53.592;10.184;2023-07-09T10:30:02;5.50;;;3.72;;
16015;SDS011;8112;53.592;10.184;2023-07-09T10:35:16;5.03;;;3.40;;
16015;SDS011;8112;53.592;10.184;2023-07-09T10:40:25;6.32;;;3.28;;
16015;SDS011;8112;53.592;10.184;2023-07-09T10:45:44;4.32;;;3.58;;
16015;SDS011;8112;53.592;10.184;2023-07-09T10:50:50;3.60;;;3.30;;
16015;SDS011;8112;53.592;10.184;2023-07-09T10:55:55;5.70;;;3.70;;
16015;SDS011;8112;53.592;10.184;2023-07-09T11:01:02;3.72;;;3.35;;
16015;SDS011;8112;53.592;10.184;2023-07-09T11:06:05;3.75;;;3.35;;
16015;SDS011;8112;53.592;10.184;2023-07-09T11:11:21;4.55;;;3.38;;
16015;SDS011;8112;53.592;10.184;2023-07-09T11:16:31;4.03;;;3.30;;
16015;SDS011;8112;53.592;10.184;2023-07-09T11:21:40;4.32;;;3.40;;
16015;SDS011;8112;53.592;10.184;2023-07-09T11:26:47;3.83;;;3.53;;
16015;SDS011;8112;53.592;10.184;2023-07-09T11:31:51;3.70;;;3.38;;
16015;SDS011;8112;53.592;10.184;2023-07-09T11:36:56;4.65;;;3.20;;
16015;SDS011;8112;53.592;10.184;2023-07-09T11:42:00;3.92;;;3.63;;
16015;SDS011;8112;53.592;10.184;2023-07-09T11:47:08;3.80;;;3.50;;
16015;SDS011;8112;53.592;10.184;2023-07-09T11:52:19;4.53;;;3.75;;
16015;SDS011;8112;53.592;10.184;2023-07-09T11:57:32;5.18;;;3.38;;
16015;SDS011;8112;53.592;10.184;2023-07-09T12:02:35;3.92;;;3.53;;
16015;SDS011;8112;53.592;10.184;2023-07-09T12:07:37;5.82;;;4.35;;
16015;SDS011;8112;53.592;10.184;2023-07-09T12:12:41;5.07;;;3.25;;
16015;SDS011;8112;53.592;10.184;2023-07-09T12:17:54;4.72;;;3.55;;
16015;SDS011;8112;53.592;10.184;2023-07-09T12:22:57;3.88;;;3.50;;
16015;SDS011;8112;53.592;10.184;2023-07-09T12:27:59;4.03;;;3.70;;
16015;SDS011;8112;53.592;10.184;2023-07-09T12:33:06;4.75;;;4.00;;
16015;SDS011;8112;53.592;10.184;2023-07-09T12:38:10;4.10;;;3.70;;
16015;SDS011;8112;53.592;10.184;2023-07-09T12:43:19;9.10;;;3.90;;
16015;SDS011;8112;53.592;10.184;2023-07-09T12:48:27;4.75;;;3.88;;
16015;SDS011;8112;53.592;10.184;2023-07-09T12:53:30;6.22;;;4.10;;
16015;SDS011;8112;53.592;10.184;2023-07-09T12:58:33;5.55;;;4.15;;
16015;SDS011;8112;53.592;10.184;2023-07-09T13:03:40;4.30;;;3.90;;
16015;SDS011;8112;53.592;10.184;2023-07-09T13:08:42;7.55;;;4.35;;
16015;SDS011;8112;53.592;10.184;2023-07-09T13:13:53;5.03;;;3.80;;
16015;SDS011;8112;53.592;10.184;2023-07-09T13:18:57;4.28;;;3.88;;
16015;SDS011;8112;53.592;10.184;2023-07-09T13:23:59;4.43;;;4.03;;
16015;SDS011;8112;53.592;10.184;2023-07-09T13:29:00;5.20;;;4.30;;
16015;SDS011;8112;53.592;10.184;2023-07-09T13:34:08;4.53;;;4.05;;
16015;SDS011;8112;53.592;10.184;2023-07-09T13:39:19;4.40;;;4.00;;
16015;SDS011;8112;53.592;10.184;2023-07-09T13:44:22;8.30;;;4.57;;
16015;SDS011;8112;53.592;10.184;2023-07-09T13:49:26;5.93;;;4.43;;
16015;SDS011;8112;53.592;10.184;2023-07-09T13:54:29;4.85;;;4.45;;
16015;SDS011;8112;53.592;10.184;2023-07-09T13:59:35;6.68;;;4.20;;
16015;SDS011;8112;53.592;10.184;2023-07-09T14:04:38;6.57;;;4.45;;
16015;SDS011;8112;53.592;10.184;2023-07-09T14:09:40;6.15;;;4.15;;
16015;SDS011;8112;53.592;10.184;2023-07-09T14:14:41;6.90;;;4.50;;
16015;SDS011;8112;53.592;10.184;2023-07-09T14:19:46;5.43;;;4.15;;
16015;SDS011;8112;53.592;10.184;2023-07-09T14:24:48;4.72;;;4.22;;
16015;SDS011;8112;53.592;10.184;2023-07-09T14:29:49;5.00;;;3.92;;
16015;SDS011;8112;53.592;10.184;2023-07-09T14:34:53;6.70;;;4.88;;
16015;SDS011;8112;53.592;10.184;2023-07-09T14:39:54;4.95;;;4.45;;
16015;SDS011;8112;53.592;10.184;2023-07-09T14:44:56;4.60;;;4.13;;
16015;SDS011;8112;53.592;10.184;2023-07-09T14:49:59;6.78;;;4.43;;
16015;SDS011;8112;53.592;10.184;2023-07-09T14:55:01;5.32;;;4.13;;
16015;SDS011;8112;53.592;10.184;2023-07-09T15:00:04;6.03;;;4.25;;
16015;SDS011;8112;53.592;10.184;2023-07-09T15:05:13;5.05;;;4.40;;
16015;SDS011;8112;53.592;10.184;2023-07-09T15:10:17;4.78;;;4.15;;
16015;SDS011;8112;53.592;10.184;2023-07-09T15:15:20;6.00;;;4.53;;
16015;SDS011;8112;53.592;10.184;2023-07-09T15:20:27;5.20;;;4.70;;
16015;SDS011;8112;53.592;10.184;2023-07-09T15:25:30;6.15;;;4.50;;
16015;SDS011;8112;53.592;10.184;2023-07-09T15:30:32;6.00;;;4.10;;
16015;SDS011;8112;53.592;10.184;2023-07-09T15:35:38;6.40;;;4.63;;
16015;SDS011;8112;53.592;10.184;2023-07-09T15:40:39;6.40;;;4.43;;
16015;SDS011;8112;53.592;10.184;2023-07-09T15:45:42;5.97;;;4.10;;
16015;SDS011;8112;53.592;10.184;2023-07-09T15:50:47;7.18;;;4.00;;
16015;SDS011;8112;53.592;10.184;2023-07-09T15:55:48;6.40;;;4.22;;
16015;SDS011;8112;53.592;10.184;2023-07-09T16:00:53;6.07;;;4.55;;
16015;SDS011;8112;53.592;10.184;2023-07-09T16:05:56;7.90;;;4.47;;
16015;SDS011;8112;53.592;10.184;2023-07-09T16:10:59;6.10;;;4.63;;
16015;SDS011;8112;53.592;10.184;2023-07-09T16:16:01;5.13;;;4.55;;
16015;SDS011;8112;53.592;10.184;2023-07-09T16:21:04;6.60;;;4.70;;
16015;SDS011;8112;53.592;10.184;2023-07-09T16:26:07;5.00;;;4.43;;
16015;SDS011;8112;53.592;10.184;2023-07-09T16:31:11;5.40;;;4.70;;
16015;SDS011;8112;53.592;10.184;2023-07-09T16:36:14;5.53;;;4.25;;
16015;SDS011;8112;53.592;10.184;2023-07-09T16:41:18;10.60;;;4.75;;
16015;SDS011;8112;53.592;10.184;2023-07-09T16:46:21;5.40;;;4.90;;
16015;SDS011;8112;53.592;10.184;2023-07-09T16:51:25;5.20;;;4.70;;
16015;SDS011;8112;53.592;10.184;2023-07-09T16:56:27;4.95;;;4.38;;
16015;SDS011;8112;53.592;10.184;2023-07-09T17:01:29;5.72;;;4.47;;
16015;SDS011;8112;53.592;10.184;2023-07-09T17:06:32;6.20;;;4.65;;
16015;SDS011;8112;53.592;10.184;2023-07-09T17:11:36;8.82;;;4.70;;
16015;SDS011;8112;53.592;10.184;2023-07-09T17:16:37;6.65;;;4.95;;
16015;SDS011;8112;53.592;10.184;2023-07-09T17:21:41;7.03;;;4.72;;
16015;SDS011;8112;53.592;10.184;2023-07-09T17:26:45;8.05;;;5.00;;
16015;SDS011;8112;53.592;10.184;2023-07-09T17:31:50;8.85;;;4.97;;
16015;SDS011;8112;53.592;10.184;2023-07-09T17:36:56;8.27;;;5.22;;
16015;SDS011;8112;53.592;10.184;2023-07-09T17:41:58;7.38;;;5.18;;
16015;SDS011;8112;53.592;10.184;2023-07-09T17:46:59;8.38;;;5.47;;
16015;SDS011;8112;53.592;10.184;2023-07-09T17:52:04;8.13;;;5.57;;
16015;SDS011;8112;53.592;10.184;2023-07-09T17:57:09;7.43;;;5.22;;
16015;SDS011;8112;53.592;10.184;2023-07-09T18:02:19;9.38;;;5.75;;
16015;SDS011;8112;53.592;10.184;2023-07-09T18:07:29;6.47;;;5.30;;
16015;SDS011;8112;53.592;10.184;2023-07-09T18:12:31;10.52;;;5.45;;
16015;SDS011;8112;53.592;10.184;2023-07-09T18:17:34;5.43;;;4.93;;
16015;SDS011;8112;53.592;10.184;2023-07-09T18:22:37;7.30;;;4.70;;
16015;SDS011;8112;53.592;10.184;2023-07-09T18:27:40;8.65;;;4.47;;
16015;SDS011;8112;53.592;10.184;2023-07-09T18:32:44;5.22;;;4.00;;
16015;SDS011;8112;53.592;10.184;2023-07-09T18:37:49;8.00;;;4.05;;
16015;SDS011;8112;53.592;10.184;2023-07-09T18:42:52;7.32;;;4.20;;
16015;SDS011;8112;53.592;10.184;2023-07-09T18:47:54;5.93;;;4.30;;
16015;SDS011;8112;53.592;10.184;2023-07-09T18:52:58;7.15;;;3.88;;
16015;SDS011;8112;53.592;10.184;2023-07-09T18:58:00;6.45;;;3.85;;
16015;SDS011;8112;53.592;10.184;2023-07-09T19:03:03;5.30;;;3.85;;
16015;SDS011;8112;53.592;10.184;2023-07-09T19:08:13;5.00;;;3.80;;
16015;SDS011;8112;53.592;10.184;2023-07-09T19:13:18;5.63;;;3.80;;
16015;SDS011;8112;53.592;10.184;2023-07-09T19:18:22;7.05;;;3.80;;
16015;SDS011;8112;53.592;10.184;2023-07-09T19:23:27;7.30;;;4.10;;
16015;SDS011;8112;53.592;10.184;2023-07-09T19:28:29;9.32;;;3.97;;
16015;SDS011;8112;53.592;10.184;2023-07-09T19:33:33;7.68;;;4.70;;
16015;SDS011;8112;53.592;10.184;2023-07-09T19:38:37;6.15;;;3.92;;
16015;SDS011;8112;53.592;10.184;2023-07-09T19:43:39;9.05;;;4.25;;
16015;SDS011;8112;53.592;10.184;2023-07-09T19:48:41;6.15;;;4.25;;
16015;SDS011;8112;53.592;10.184;2023-07-09T19:53:44;8.88;;;4.07;;
16015;SDS011;8112;53.592;10.184;2023-07-09T19:58:45;9.70;;;4.95;;
16015;SDS011;8112;53.592;10.184;2023-07-09T20:03:47;9.10;;;4.50;;
16015;SDS011;8112;53.592;10.184;2023-07-09T20:08:50;7.93;;;4.05;;
16015;SDS011;8112;53.592;10.184;2023-07-09T20:13:52;5.05;;;4.05;;
16015;SDS011;8112;53.592;10.184;2023-07-09T20:18:54;5.22;;;4.55;;
16015;SDS011;8112;53.592;10.184;2023-07-09T20:23:58;7.25;;;5.32;;
16015;SDS011;8112;53.592;10.184;2023-07-09T20:29:00;7.57;;;3.80;;
16015;SDS011;8112;53.592;10.184;2023-07-09T20:34:08;5.73;;;2.70;;
16015;SDS011;8112;53.592;10.184;2023-07-09T20:39:16;4.10;;;2.50;;
16015;SDS011;8112;53.592;10.184;2023-07-09T20:44:19;6.10;;;2.90;;
16015;SDS011;8112;53.592;10.184;2023-07-09T20:49:26;4.83;;;2.57;;
16015;SDS011;8112;53.592;10.184;2023-07-09T20:54:32;6.57;;;2.87;;
16015;SDS011;8112;53.592;10.184;2023-07-09T20:59:34;7.27;;;3.20;;
16015;SDS011;8112;53.592;10.184;2023-07-09T21:04:36;4.30;;;3.30;;
16015;SDS011;8112;53.592;10.184;2023-07-09T21:09:39;3.87;;;3.27;;
16015;SDS011;8112;53.592;10.184;2023-07-09T21:14:41;4.70;;;3.23;;
16015;SDS011;8112;53.592;10.184;2023-07-09T21:19:43;6.37;;;4.07;;
16015;SDS011;8112;53.592;10.184;2023-07-09T21:24:47;7.40;;;4.03;;
16015;SDS011;8112;53.592;10.184;2023-07-09T21:29:50;6.47;;;4.23;;
16015;SDS011;8112;53.592;10.184;2023-07-09T21:34:51;7.50;;;4.57;;
16015;SDS011;8112;53.592;10.184;2023-07-09T21:39:56;7.07;;;5.03;;
16015;SDS011;8112;53.592;10.184;2023-07-09T21:44:58;8.13;;;4.97;;
16015;SDS011;8112;53.592;10.184;2023-07-09T21:50:00;10.27;;;5.67;;
16015;SDS011;8112;53.592;10.184;2023-07-09T21:55:04;7.63;;;4.63;;
16015;SDS011;8112;53.592;10.184;2023-07-09T22:00:14;9.23;;;5.30;;
16015;SDS011;8112;53.592;10.184;2023-07-09T22:05:18;10.23;;;5.60;;
16015;SDS011;8112;53.592;10.184;2023-07-09T22:10:23;10.43;;;5.13;;
16015;SDS011;8112;53.592;10.184;2023-07-09T22:15:29;9.53;;;4.97;;
16015;SDS011;8112;53.592;10.184;2023-07-09T22:20:30;7.80;;;5.03;;
16015;SDS011;8112;53.592;10.184;2023-07-09T22:25:34;9.70;;;5.30;;
16015;SDS011;8112;53.592;10.184;2023-07-09T22:30:36;10.93;;;5.23;;
16015;SDS011;8112;53.592;10.184;2023-07-09T22:35:38;8.70;;;5.23;;
16015;SDS011;8112;53.592;10.184;2023-07-09T22:40:41;10.63;;;5.27;;
16015;SDS011;8112;53.592;10.184;2023-07-09T22:45:43;11.40;;;4.93;;
16015;SDS011;8112;53.592;10.184;2023-07-09T22:50:49;7.97;;;4.97;;
16015;SDS011;8112;53.592;10.184;2023-07-09T22:55:55;9.73;;;5.20;;
16015;SDS011;8112;53.592;10.184;2023-07-09T23:00:58;13.13;;;5.77;;
16015;SDS011;8112;53.592;10.184;2023-07-09T23:06:09;9.60;;;5.57;;
16015;SDS011;8112;53.592;10.184;2023-07-09T23:11:15;9.80;;;5.97;;
16015;SDS011;8112;53.592;10.184;2023-07-09T23:16:20;12.57;;;6.37;;
16015;SDS011;8112;53.592;10.184;2023-07-09T23:21:23;9.30;;;5.30;;
16015;SDS011;8112;53.592;10.184;2023-07-09T23:26:26;11.00;;;5.67;;
16015;SDS011;8112;53.592;10.184;2023-07-09T23:31:29;15.23;;;5.77;;
16015;SDS011;8112;53.592;10.184;2023-07-09T23:36:33;11.00;;;5.73;;
16015;SDS011;8112;53.592;10.184;2023-07-09T23:41:38;14.00;;;6.40;;
16015;SDS011;8112;53.592;10.184;2023-07-09T23:46:42;14.33;;;6.63;;
16015;SDS011;8112;53.592;10.184;2023-07-09T23:51:44;9.57;;;6.00;;
16015;SDS011;8112;53.592;10.184;2023-07-09T23:56:48;12.77;;;5.70;;
